sensor_id;sensor_type;location;lat;lon;timestamp;pressure;altitude;pressure_sealevel;temperature;humidity
25650;BME280;13505;45.196;5.696;2024-01-15T05:30:44;98527.53;;;3.71;97.67
25650;BME280;13505;45.196;5.696;2024-01-15T05:35:35;98524.38;;;3.59;97.50
25650;BME280;13505;45.196;5.696;2024-01-15T05:40:26;98524.47;;;3.56;99.88
25650;BME280;13505;45.196;5.696;2024-01-15T05:45:16;98533.91;;;3.27;100.00
25650;BME280;13505;45.196;5.696;2024-01-15T05:50:08;98520.78;;;3.30;100.00
25650;BME280;13505;45.196;5.696;2024-01-15T05:54:58;98508.31;;;3.42;100.00
25650;BME280;13505;45.196;5.696;2024-01-15T05:59:49;98498.66;;;3.45;100.00
25650;BME280;13505;45.196;5.696;2024-01-15T06:04:39;98504.03;;;3.39;100.00
25650;BME280;13505;45.196;5.696;2024-01-15T06:09:30;98497.28;;;3.63;100.00
25650;BME280;13505;45.196;5.696;2024-01-15T06:14:21;98501.72;;;3.60;100.00
25650;BME280;13505;45.196;5.696;2024-01-15T06:19:12;98502.88;;;3.49;100.00
25650;BME280;13505;45.196;5.696;2024-01-15T06:24:02;98508.19;;;3.46;100.00
25650;BME280;13505;45.196;5.696;2024-01-15T06:28:52;98515.09;;;3.49;100.00
25650;BME280;13505;45.196;5.696;2024-01-15T06:33:43;98517.38;;;3.60;100.00
25650;BME280;13505;45.196;5.696;2024-01-15T06:38:35;98510.66;;;3.53;100.00
25650;BME280;13505;45.196;5.696;2024-01-15T06:43:25;98514.72;;;3.93;100.00
25650;BME280;13505;45.196;5.696;2024-01-15T06:48:16;98516.44;;;3.94;100.00
25650;BME280;13505;45.196;5.696;2024-01-15T06:53:06;98521.03;;;3.86;100.00
25650;BME280;13505;45.196;5.696;2024-01-15T06:57:57;98518.69;;;4.07;100.00
25650;BME280;13505;45.196;5.696;2024-01-15T07:02:47;98512.53;;;4.09;100.00
25650;BME280;13505;45.196;5.696;2024-01-15T07:07:37;98523.69;;;4.13;98.46
25650;BME280;13505;45.196;5.696;2024-01-15T07:12:28;98523.78;;;3.80;100.00
25650;BME280;13505;45.196;5.696;2024-01-15T07:17:18;98526.47;;;3.78;100.00
25650;BME280;13505;45.196;5.696;2024-01-15T07:22:09;98524.66;;;4.10;100.00
25650;BME280;13505;45.196;5.696;2024-01-15T07:26:59;98526.25;;;4.16;99.41
25650;BME280;13505;45.196;5.696;2024-01-15T07:31:50;98522.72;;;4.17;99.43
25650;BME280;13505;45.196;5.696;2024-01-15T07:36:41;98527.06;;;4.16;99.83
25650;BME280;13505;45.196;5.696;2024-01-15T07:41:31;98530.56;;;4.17;100.00
25650;BME280;13505;45.196;5.696;2024-01-15T07:46:22;98529.88;;;4.10;100.00
25650;BME280;13505;45.196;5.696;2024-01-15T07:51:12;98535.00;;;4.13;100.00
25650;BME280;13505;45.196;5.696;2024-01-15T07:56:02;98542.06;;;4.10;100.00
25650;BME280;13505;45.196;5.696;2024-01-15T08:00:53;98540.22;;;4.13;100.00
25650;BME280;13505;45.196;5.696;2024-01-15T08:05:43;98539.44;;;4.11;100.00
25650;BME280;13505;45.196;5.696;2024-01-15T08:10:34;98543.69;;;4.14;100.00
25650;BME280;13505;45.196;5.696;2024-01-15T08:15:24;98541.50;;;4.00;100.00
25650;BME280;13505;45.196;5.696;2024-01-15T08:20:14;98539.84;;;3.96;100.00
25650;BME280;13505;45.196;5.696;2024-01-15T08:25:06;98544.00;;;4.03;100.00
25650;BME280;13505;45.196;5.696;2024-01-15T08:29:56;98546.59;;;3.73;100.00
25650;BME280;13505;45.196;5.696;2024-01-15T08:34:47;98558.38;;;3.56;100.00
25650;BME280;13505;45.196;5.696;2024-01-15T08:39:39;98540.97;;;3.88;100.00
25650;BME280;13505;45.196;5.696;2024-01-15T08:44:29;98560.56;;;3.70;100.00
25650;BME280;13505;45.196;5.696;2024-01-15T08:49:19;98562.34;;;3.37;100.00
25650;BME280;13505;45.196;5.696;2024-01-15T08:54:10;98559.06;;;3.63;100.00
25650;BME280;13505;45.196;5.696;2024-01-15T08:59:01;98548.56;;;3.65;100.00
25650;BME280;13505;45.196;5.696;2024-01-15T09:03:51;98540.78;;;3.63;100.00
25650;BME280;13505;45.196;5.696;2024-01-15T09:08:41;98542.41;;;3.67;100.00
25650;BME280;13505;45.196;5.696;2024-01-15T09:13:32;98533.00;;;3.61;100.00
25650;BME280;13505;45.196;5.696;2024-01-15T09:18:22;98539.88;;;3.64;100.00
25650;BME280;13505;45.196;5.696;2024-01-15T09:23:12;98534.03;;;3.56;100.00
25650;BME280;13505;45.196;5.696;2024-01-15T09:28:03;98524.31;;;3.93;100.00
25650;BME280;13505;45.196;5.696;2024-01-15T09:32:54;98526.69;;;4.00;100.00
25650;BME280;13505;45.196;5.696;2024-01-15T09:37:44;98534.47;;;4.02;100.00
25650;BME280;13505;45.196;5.696;2024-01-15T09:42:35;98517.66;;;3.81;100.00
25650;BME280;13505;45.196;5.696;2024-01-15T09:47:26;98520.91;;;4.19;100.00
25650;BME280;13505;45.196;5.696;2024-01-15T09:52:18;98505.50;;;4.40;100.00
25650;BME280;13505;45.196;5.696;2024-01-15T09:57:09;98506.94;;;4.49;100.00
25650;BME280;13505;45.196;5.696;2024-01-15T10:02:03;98505.44;;;4.41;100.00
25650;BME280;13505;45.196;5.696;2024-01-15T10:06:56;98504.88;;;4.31;100.00
25650;BME280;13505;45.196;5.696;2024-01-15T10:11:48;98504.47;;;4.44;100.00
25650;BME280;13505;45.196;5.696;2024-01-15T10:16:42;98503.91;;;4.63;100.00
25650;BME280;13505;45.196;5.696;2024-01-15T10:21:33;98510.22;;;4.27;100.00
25650;BME280;13505;45.196;5.696;2024-01-15T10:26:26;98499.88;;;4.24;100.00
25650;BME280;13505;45.196;5.696;2024-01-15T10:31:17;98505.25;;;4.19;100.00
25650;BME280;13505;45.196;5.696;2024-01-15T10:36:09;98504.28;;;4.50;100.00
25650;BME280;13505;45.196;5.696;2024-01-15T10:41:00;98502.84;;;4.68;100.00
25650;BME280;13505;45.196;5.696;2024-01-15T10:45:51;98474.41;;;4.86;100.00
25650;BME280;13505;45.196;5.696;2024-01-15T10:50:41;98460.47;;;4.85;100.00
25650;BME280;13505;45.196;5.696;2024-01-15T10:55:33;98470.91;;;5.12;100.00
25650;BME280;13505;45.196;5.696;2024-01-15T11:00:25;98477.34;;;5.27;100.00
25650;BME280;13505;45.196;5.696;2024-01-15T11:05:16;98465.13;;;5.28;100.00
25650;BME280;13505;45.196;5.696;2024-01-15T11:31:19;98434.47;;;5.31;100.00
25650;BME280;13505;45.196;5.696;2024-01-15T11:36:09;98418.00;;;5.29;100.00
25650;BME280;13505;45.196;5.696;2024-01-15T11:41:15;98423.84;;;5.36;100.00
25650;BME280;13505;45.196;5.696;2024-01-15T11:46:12;98406.03;;;5.22;100.00
25650;BME280;13505;45.196;5.696;2024-01-15T11:51:03;98413.84;;;5.24;100.00
25650;BME280;13505;45.196;5.696;2024-01-15T11:55:58;98423.09;;;5.56;100.00
25650;BME280;13505;45.196;5.696;2024-01-15T12:00:50;98422.66;;;5.69;100.00
25650;BME280;13505;45.196;5.696;2024-01-15T12:05:40;98427.59;;;5.77;100.00
25650;BME280;13505;45.196;5.696;2024-01-15T12:10:33;98422.25;;;5.80;100.00
25650;BME280;13505;45.196;5.696;2024-01-15T12:15:24;98421.34;;;5.57;100.00
25650;BME280;13505;45.196;5.696;2024-01-15T12:20:15;98407.34;;;5.58;100.00
25650;BME280;13505;45.196;5.696;2024-01-15T12:25:08;98407.94;;;5.66;100.00
25650;BME280;13505;45.196;5.696;2024-01-15T12:29:59;98419.06;;;5.71;100.00
25650;BME280;13505;45.196;5.696;2024-01-15T12:34:50;98420.53;;;5.79;100.00
25650;BME280;13505;45.196;5.696;2024-01-15T12:39:43;98414.63;;;5.50;100.00
25650;BME280;13505;45.196;5.696;2024-01-15T12:44:34;98413.56;;;5.55;100.00
25650;BME280;13505;45.196;5.696;2024-01-15T12:49:24;98401.72;;;5.69;100.00
25650;BME280;13505;45.196;5.696;2024-01-15T12:54:14;98412.00;;;5.50;100.00
25650;BME280;13505;45.196;5.696;2024-01-15T12:59:05;98411.81;;;5.56;100.00
25650;BME280;13505;45.196;5.696;2024-01-15T13:03:55;98400.63;;;5.51;100.00
25650;BME280;13505;45.196;5.696;2024-01-15T13:08:45;98414.00;;;5.67;100.00
25650;BME280;13505;45.196;5.696;2024-01-15T13:13:36;98395.16;;;5.81;100.00
25650;BME280;13505;45.196;5.696;2024-01-15T13:18:27;98408.06;;;5.85;100.00
25650;BME280;13505;45.196;5.696;2024-01-15T13:23:18;98411.28;;;5.92;100.00
25650;BME280;13505;45.196;5.696;2024-01-15T13:28:08;98408.44;;;5.28;100.00
25650;BME280;13505;45.196;5.696;2024-01-15T13:32:58;98411.72;;;5.34;100.00
25650;BME280;13505;45.196;5.696;2024-01-15T13:37:54;98408.00;;;5.41;100.00
25650;BME280;13505;45.196;5.696;2024-01-15T13:42:44;98407.53;;;5.53;100.00
25650;BME280;13505;45.196;5.696;2024-01-15T13:47:35;98413.72;;;5.27;100.00
25650;BME280;13505;45.196;5.696;2024-01-15T13:52:27;98400.19;;;5.39;100.00
25650;BME280;13505;45.196;5.696;2024-01-15T13:57:18;98403.09;;;5.55;100.00
25650;BME280;13505;45.196;5.696;2024-01-15T14:02:09;98395.31;;;5.54;100.00
25650;BME280;13505;45.196;5.696;2024-01-15T14:07:02;98393.94;;;5.67;100.00
25650;BME280;13505;45.196;5.696;2024-01-15T14:11:53;98392.09;;;5.69;100.00
25650;BME280;13505;45.196;5.696;2024-01-15T14:16:43;98388.66;;;5.69;100.00
25650;BME280;13505;45.196;5.696;2024-01-15T14:21:33;98397.53;;;5.87;100.00
25650;BME280;13505;45.196;5.696;2024-01-15T14:26:24;98388.50;;;5.94;100.00
25650;BME280;13505;45.196;5.696;2024-01-15T14:31:14;98393.84;;;5.93;100.00
25650;BME280;13505;45.196;5.696;2024-01-15T14:36:05;98392.91;;;5.94;100.00
25650;BME280;13505;45.196;5.696;2024-01-15T14:40:55;98373.94;;;5.42;100.00
25650;BME280;13505;45.196;5.696;2024-01-15T14:45:47;98399.72;;;5.52;100.00
25650;BME280;13505;45.196;5.696;2024-01-15T14:50:37;98398.47;;;5.62;100.00
25650;BME280;13505;45.196;5.696;2024-01-15T14:55:28;98379.19;;;5.42;100.00
25650;BME280;13505;45.196;5.696;2024-01-15T15:00:18;98383.69;;;5.61;100.00
25650;BME280;13505;45.196;5.696;2024-01-15T15:05:09;98393.75;;;5.72;100.00
25650;BME280;13505;45.196;5.696;2024-01-15T15:10:00;98404.53;;;5.64;100.00
25650;BME280;13505;45.196;5.696;2024-01-15T15:14:51;98381.75;;;5.66;100.00
25650;BME280;13505;45.196;5.696;2024-01-15T15:19:41;98385.19;;;5.44;100.00
25650;BME280;13505;45.196;5.696;2024-01-15T15:24:31;98389.84;;;5.60;100.00
25650;BME280;13505;45.196;5.696;2024-01-15T15:29:23;98394.22;;;5.59;100.00
25650;BME280;13505;45.196;5.696;2024-01-15T15:34:14;98395.94;;;5.61;100.00
25650;BME280;13505;45.196;5.696;2024-01-15T15:39:05;98407.94;;;5.66;100.00
25650;BME280;13505;45.196;5.696;2024-01-15T15:43:56;98411.34;;;5.68;100.00
25650;BME280;13505;45.196;5.696;2024-01-15T15:48:46;98413.91;;;5.70;100.00
25650;BME280;13505;45.196;5.696;2024-01-15T15:53:37;98432.03;;;5.75;100.00
25650;BME280;13505;45.196;5.696;2024-01-15T15:58:27;98430.34;;;5.73;100.00
25650;BME280;13505;45.196;5.696;2024-01-15T16:03:18;98432.38;;;5.65;100.00
25650;BME280;13505;45.196;5.696;2024-01-15T16:08:09;98435.91;;;5.64;100.00
25650;BME280;13505;45.196;5.696;2024-01-15T16:13:01;98446.31;;;5.66;100.00
25650;BME280;13505;45.196;5.696;2024-01-15T16:17:52;98453.38;;;5.64;100.00
25650;BME280;13505;45.196;5.696;2024-01-15T16:22:42;98456.78;;;5.66;100.00
25650;BME280;13505;45.196;5.696;2024-01-15T16:27:33;98457.31;;;5.76;100.00
25650;BME280;13505;45.196;5.696;2024-01-15T16:32:23;98453.50;;;5.83;100.00
25650;BME280;13505;45.196;5.696;2024-01-15T16:37:14;98466.50;;;5.86;100.00
25650;BME280;13505;45.196;5.696;2024-01-15T16:42:04;98473.84;;;5.76;100.00
25650;BME280;13505;45.196;5.696;2024-01-15T16:46:55;98486.28;;;5.69;100.00
25650;BME280;13505;45.196;5.696;2024-01-15T16:51:52;98498.44;;;5.72;100.00
25650;BME280;13505;45.196;5.696;2024-01-15T16:56:43;98507.41;;;5.65;100.00
25650;BME280;13505;45.196;5.696;2024-01-15T17:01:33;98506.41;;;5.69;100.00
25650;BME280;13505;45.196;5.696;2024-01-15T17:06:24;98500.41;;;5.65;100.00
25650;BME280;13505;45.196;5.696;2024-01-15T17:11:14;98507.34;;;5.66;100.00
25650;BME280;13505;45.196;5.696;2024-01-15T17:16:05;98508.09;;;5.70;100.00
25650;BME280;13505;45.196;5.696;2024-01-15T17:20:56;98509.81;;;5.71;100.00
25650;BME280;13505;45.196;5.696;2024-01-15T17:26:07;98518.56;;;5.70;100.00
25650;BME280;13505;45.196;5.696;2024-01-15T17:30:57;98512.47;;;5.69;100.00
25650;BME280;13505;45.196;5.696;2024-01-15T17:40:43;98523.19;;;5.63;100.00
25650;BME280;13505;45.196;5.696;2024-01-15T17:45:33;98532.50;;;5.70;100.00
25650;BME280;13505;45.196;5.696;2024-01-15T17:50:24;98540.41;;;5.69;100.00
25650;BME280;13505;45.196;5.696;2024-01-15T17:55:14;98539.66;;;5.65;100.00
25650;BME280;13505;45.196;5.696;2024-01-15T18:00:05;98550.13;;;5.65;100.00
25650;BME280;13505;45.196;5.696;2024-01-15T18:04:57;98561.34;;;5.69;100.00
25650;BME280;13505;45.196;5.696;2024-01-15T18:09:47;98565.66;;;5.70;100.00
25650;BME280;13505;45.196;5.696;2024-01-15T18:14:37;98571.97;;;5.64;100.00
25650;BME280;13505;45.196;5.696;2024-01-15T18:19:28;98569.69;;;5.55;100.00
25650;BME280;13505;45.196;5.696;2024-01-15T18:24:19;98574.94;;;5.53;100.00
25650;BME280;13505;45.196;5.696;2024-01-15T18:29:20;98569.41;;;5.63;100.00
25650;BME280;13505;45.196;5.696;2024-01-15T18:34:23;98577.38;;;5.59;100.00
25650;BME280;13505;45.196;5.696;2024-01-15T18:39:14;98578.03;;;5.65;100.00
25650;BME280;13505;45.196;5.696;2024-01-15T18:44:06;98583.44;;;5.60;100.00
25650;BME280;13505;45.196;5.696;2024-01-15T18:48:57;98582.38;;;5.66;100.00
25650;BME280;13505;45.196;5.696;2024-01-15T18:53:47;98583.44;;;5.60;100.00
25650;BME280;13505;45.196;5.696;2024-01-15T18:58:38;98591.56;;;5.52;100.00
25650;BME280;13505;45.196;5.696;2024-01-15T19:03:32;98587.41;;;5.47;100.00
25650;BME280;13505;45.196;5.696;2024-01-15T19:08:22;98575.19;;;5.47;100.00
25650;BME280;13505;45.196;5.696;2024-01-15T19:13:12;98590.97;;;5.44;100.00
25650;BME280;13505;45.196;5.696;2024-01-15T19:18:03;98589.25;;;5.43;100.00
25650;BME280;13505;45.196;5.696;2024-01-15T19:22:53;98589.50;;;5.37;100.00
25650;BME280;13505;45.196;5.696;2024-01-15T19:27:44;98587.81;;;5.34;100.00
25650;BME280;13505;45.196;5.696;2024-01-15T19:32:36;98584.25;;;5.37;100.00
25650;BME280;13505;45.196;5.696;2024-01-15T19:37:27;98586.16;;;5.31;100.00
25650;BME280;13505;45.196;5.696;2024-01-15T19:42:18;98588.00;;;5.28;100.00
25650;BME280;13505;45.196;5.696;2024-01-15T19:47:08;98596.81;;;5.25;100.00
25650;BME280;13505;45.196;5.696;2024-01-15T19:51:59;98595.19;;;5.23;100.00
25650;BME280;13505;45.196;5.696;2024-01-15T19:56:49;98594.59;;;5.13;100.00
25650;BME280;13505;45.196;5.696;2024-01-15T20:01:39;98593.78;;;5.12;100.00
25650;BME280;13505;45.196;5.696;2024-01-15T20:06:30;98594.97;;;5.02;100.00
25650;BME280;13505;45.196;5.696;2024-01-15T20:11:21;98594.25;;;4.97;100.00
25650;BME280;13505;45.196;5.696;2024-01-15T20:16:12;98598.56;;;4.98;100.00
25650;BME280;13505;45.196;5.696;2024-01-15T20:21:07;98600.53;;;4.91;100.00
25650;BME280;13505;45.196;5.696;2024-01-15T20:26:09;98598.69;;;4.95;100.00
25650;BME280;13505;45.196;5.696;2024-01-15T20:31:05;98598.78;;;4.92;100.00
25650;BME280;13505;45.196;5.696;2024-01-15T20:36:00;98604.72;;;4.97;100.00
25650;BME280;13505;45.196;5.696;2024-01-15T20:40:51;98607.28;;;4.98;100.00
25650;BME280;13505;45.196;5.696;2024-01-15T20:45:41;98604.56;;;5.01;100.00
25650;BME280;13505;45.196;5.696;2024-01-15T20:50:40;98613.31;;;5.00;100.00
25650;BME280;13505;45.196;5.696;2024-01-15T20:55:58;98613.03;;;5.10;100.00
25650;BME280;13505;45.196;5.696;2024-01-15T21:00:49;98613.72;;;5.15;100.00
25650;BME280;13505;45.196;5.696;2024-01-15T21:05:39;98625.00;;;5.17;100.00
25650;BME280;13505;45.196;5.696;2024-01-15T21:10:29;98621.47;;;5.18;100.00
25650;BME280;13505;45.196;5.696;2024-01-15T21:15:20;98622.38;;;5.17;100.00
25650;BME280;13505;45.196;5.696;2024-01-15T21:20:10;98625.75;;;5.21;100.00
25650;BME280;13505;45.196;5.696;2024-01-15T21:25:02;98630.06;;;5.22;100.00
25650;BME280;13505;45.196;5.696;2024-01-15T21:29:53;98638.75;;;5.22;100.00
25650;BME280;13505;45.196;5.696;2024-01-15T21:34:43;98629.06;;;5.26;100.00
25650;BME280;13505;45.196;5.696;2024-01-15T21:39:33;98624.72;;;5.25;100.00
25650;BME280;13505;45.196;5.696;2024-01-15T21:44:24;98625.91;;;5.16;100.00
25650;BME280;13505;45.196;5.696;2024-01-15T21:49:14;98636.25;;;5.19;100.00
25650;BME280;13505;45.196;5.696;2024-01-15T21:54:05;98639.47;;;5.27;100.00
25650;BME280;13505;45.196;5.696;2024-01-15T21:58:55;98647.63;;;5.18;100.00
25650;BME280;13505;45.196;5.696;2024-01-15T22:03:46;98661.53;;;5.19;100.00
25650;BME280;13505;45.196;5.696;2024-01-15T22:08:36;98645.81;;;5.20;100.00
25650;BME280;13505;45.196;5.696;2024-01-15T22:13:27;98658.91;;;5.19;100.00
25650;BME280;13505;45.196;5.696;2024-01-15T22:18:17;98663.16;;;5.23;100.00
25650;BME280;13505;45.196;5.696;2024-01-15T22:23:07;98661.75;;;5.12;100.00
25650;BME280;13505;45.196;5.696;2024-01-15T22:27:59;98675.63;;;5.14;100.00
25650;BME280;13505;45.196;5.696;2024-01-15T22:32:49;98678.88;;;5.21;100.00
25650;BME280;13505;45.196;5.696;2024-01-15T22:37:40;98684.69;;;5.02;100.00
25650;BME280;13505;45.196;5.696;2024-01-15T22:42:31;98686.91;;;4.86;100.00
25650;BME280;13505;45.196;5.696;2024-01-15T22:47:22;98691.75;;;4.99;100.00
25650;BME280;13505;45.196;5.696;2024-01-15T22:52:12;98691.72;;;5.00;99.85
25650;BME280;13505;45.196;5.696;2024-01-15T22:57:03;98692.16;;;4.86;100.00
